createdAt,value
2019-03-24T00:01:54.578Z,23.07
2019-03-24T00:04:20.959Z,23.50
2019-03-24T00:06:47.423Z,22.77
2019-03-24T00:09:13.770Z,23.43
2019-03-24T00:11:40.522Z,23.17
2019-03-24T00:14:07.189Z,25.40
2019-03-24T00:16:33.711Z,23.97
2019-03-24T00:19:00.480Z,23.57
2019-03-24T00:21:26.931Z,24.50
2019-03-24T00:23:53.403Z,24.17
2019-03-24T00:26:19.978Z,22.60
2019-03-24T00:28:46.323Z,22.53
2019-03-24T00:31:12.703Z,23.30
2019-03-24T00:33:39.061Z,23.00
2019-03-24T00:36:05.525Z,22.03
2019-03-24T00:38:31.919Z,24.13
2019-03-24T00:40:58.277Z,23.13
2019-03-24T00:43:24.755Z,25.10
2019-03-24T00:45:51.222Z,22.60
2019-03-24T00:48:17.598Z,23.43
2019-03-24T00:50:44.145Z,23.80
2019-03-24T00:53:10.611Z,23.13
2019-03-24T00:55:37.060Z,23.93
2019-03-24T00:58:03.577Z,23.47
2019-03-24T01:00:31.994Z,24.87
2019-03-24T01:02:58.570Z,25.27
2019-03-24T01:05:25.114Z,24.87
2019-03-24T01:07:51.595Z,23.83
2019-03-24T01:10:18.051Z,22.70
2019-03-24T01:12:44.442Z,26.50
2019-03-24T01:15:11.018Z,25.73
2019-03-24T01:17:37.587Z,26.23
2019-03-24T01:20:04.839Z,26.53
2019-03-24T01:22:31.421Z,26.93
2019-03-24T01:24:57.936Z,25.20
2019-03-24T01:27:24.398Z,27.93
2019-03-24T01:29:50.869Z,26.80
2019-03-24T01:32:17.351Z,27.03
2019-03-24T01:34:43.802Z,26.63
2019-03-24T01:37:10.143Z,25.33
2019-03-24T01:39:36.710Z,27.47
2019-03-24T01:42:03.176Z,25.73
2019-03-24T01:44:29.648Z,25.87
2019-03-24T01:46:56.048Z,26.10
2019-03-24T01:49:22.622Z,27.23
2019-03-24T01:51:48.971Z,27.27
2019-03-24T01:54:15.434Z,25.53
2019-03-24T01:56:42.007Z,25.30
2019-03-24T01:59:08.467Z,26.23
2019-03-24T02:01:34.914Z,26.50
2019-03-24T02:04:01.302Z,26.90
2019-03-24T02:06:27.739Z,28.03
2019-03-24T02:08:54.108Z,26.17
2019-03-24T02:11:20.463Z,25.90
2019-03-24T02:13:46.935Z,26.73
2019-03-24T02:16:13.319Z,27.13
2019-03-24T02:18:39.812Z,26.03
2019-03-24T02:21:06.193Z,26.87
2019-03-24T02:23:32.566Z,26.23
2019-03-24T02:25:59.019Z,25.63
2019-03-24T02:28:25.404Z,27.23
2019-03-24T02:30:51.856Z,25.10
2019-03-24T02:33:18.517Z,25.83
2019-03-24T02:35:44.956Z,25.50
2019-03-24T02:38:11.368Z,24.63
2019-03-24T02:40:37.990Z,24.73
2019-03-24T02:43:04.436Z,24.67
2019-03-24T02:45:30.909Z,26.07
2019-03-24T02:47:57.467Z,25.63
2019-03-24T02:50:23.858Z,26.47
2019-03-24T02:52:50.420Z,26.23
2019-03-24T02:55:16.803Z,26.70
2019-03-24T02:57:43.247Z,27.60
2019-03-24T03:00:10.111Z,27.37
2019-03-24T03:02:36.562Z,29.27
2019-03-24T03:05:04.641Z,26.83
2019-03-24T03:07:31.095Z,27.50
2019-03-24T03:09:57.463Z,28.07
2019-03-24T03:12:23.856Z,27.90
2019-03-24T03:14:50.316Z,28.23
2019-03-24T03:17:16.717Z,29.17
2019-03-24T03:19:43.178Z,29.77
2019-03-24T03:22:09.646Z,28.77
2019-03-24T03:24:36.098Z,28.37
2019-03-24T03:27:02.727Z,28.27
2019-03-24T03:29:29.143Z,27.90
2019-03-24T03:31:55.628Z,27.40
2019-03-24T03:34:22.014Z,26.93
2019-03-24T03:36:48.605Z,31.20
2019-03-24T03:39:15.175Z,29.37
2019-03-24T03:41:41.814Z,27.60
2019-03-24T03:44:08.276Z,27.30
2019-03-24T03:46:34.700Z,29.53
2019-03-24T03:49:01.156Z,27.87
2019-03-24T03:51:27.535Z,30.00
2019-03-24T03:53:53.877Z,28.67
2019-03-24T03:56:20.274Z,27.87
2019-03-24T03:58:46.651Z,30.03
2019-03-24T04:01:13.194Z,29.17
2019-03-24T04:03:39.568Z,29.13
2019-03-24T04:06:05.940Z,27.73
2019-03-24T04:08:32.383Z,29.00
2019-03-24T04:10:58.952Z,28.57
2019-03-24T04:13:25.345Z,28.23
2019-03-24T04:15:51.945Z,30.23
2019-03-24T04:18:18.316Z,28.63
2019-03-24T04:20:44.713Z,29.33
2019-03-24T04:23:11.180Z,26.63
2019-03-24T04:25:37.722Z,27.53
2019-03-24T04:28:04.341Z,28.70
2019-03-24T04:30:30.795Z,28.60
2019-03-24T04:32:57.263Z,29.07
2019-03-24T04:35:23.818Z,28.40
2019-03-24T04:37:50.199Z,29.53
2019-03-24T04:40:16.681Z,30.07
2019-03-24T04:42:43.055Z,27.77
2019-03-24T04:45:09.607Z,28.47
2019-03-24T04:47:36.171Z,29.23
2019-03-24T04:50:04.328Z,30.00
2019-03-24T04:52:30.808Z,29.07
2019-03-24T04:54:57.202Z,29.93
2019-03-24T04:57:23.681Z,29.47
2019-03-24T04:59:50.112Z,29.50
2019-03-24T05:02:16.575Z,30.20
2019-03-24T05:04:43.127Z,29.07
2019-03-24T05:07:09.708Z,30.90
2019-03-24T05:09:36.152Z,29.03
2019-03-24T05:12:02.540Z,28.80
2019-03-24T05:14:28.954Z,28.33
2019-03-24T05:16:55.416Z,28.37
2019-03-24T05:19:21.895Z,29.80
2019-03-24T05:21:48.263Z,29.30
2019-03-24T05:24:14.736Z,28.50
2019-03-24T05:26:41.201Z,29.37
2019-03-24T05:29:07.592Z,30.30
2019-03-24T05:31:34.035Z,31.40
2019-03-24T05:34:00.513Z,31.93
2019-03-24T05:36:26.969Z,31.80
2019-03-24T05:38:53.443Z,33.27
2019-03-24T05:41:19.899Z,30.23
2019-03-24T05:43:46.288Z,28.67
2019-03-24T05:46:12.631Z,29.73
2019-03-24T05:48:39.104Z,29.47
2019-03-24T05:51:05.451Z,28.43
2019-03-24T05:53:31.828Z,28.93
2019-03-24T05:55:58.376Z,28.27
2019-03-24T05:58:24.855Z,30.20
2019-03-24T06:00:51.219Z,26.60
2019-03-24T06:03:17.632Z,27.93
2019-03-24T06:05:45.329Z,28.87
2019-03-24T06:08:11.712Z,29.77
2019-03-24T06:10:38.174Z,28.80
2019-03-24T06:13:04.719Z,28.47
2019-03-24T06:15:31.238Z,29.20
2019-03-24T06:17:57.583Z,28.47
2019-03-24T06:20:23.980Z,28.73
2019-03-24T06:22:50.444Z,29.47
2019-03-24T06:25:16.811Z,28.87
2019-03-24T06:27:43.268Z,28.83
2019-03-24T06:30:09.744Z,29.50
2019-03-24T06:32:36.096Z,29.43
2019-03-24T06:35:03.387Z,29.20
2019-03-24T06:37:29.771Z,28.97
2019-03-24T06:39:56.144Z,29.57
2019-03-24T06:42:22.602Z,28.17
2019-03-24T06:44:49.068Z,30.43
2019-03-24T06:47:15.415Z,31.43
2019-03-24T06:49:41.845Z,33.27
2019-03-24T06:52:08.303Z,36.27
2019-03-24T06:54:34.694Z,35.67
2019-03-24T06:57:01.243Z,34.43
2019-03-24T06:59:27.596Z,35.83
2019-03-24T07:01:53.988Z,33.93
2019-03-24T07:04:20.429Z,33.73
2019-03-24T07:06:46.804Z,34.20
2019-03-24T07:09:14.053Z,34.63
2019-03-24T07:11:40.454Z,36.00
2019-03-24T07:14:06.972Z,34.03
2019-03-24T07:16:33.442Z,33.77
2019-03-24T07:18:59.841Z,30.87
2019-03-24T07:21:26.295Z,32.93
2019-03-24T07:23:52.663Z,34.23
2019-03-24T07:26:19.127Z,33.47
2019-03-24T07:28:45.515Z,32.90
2019-03-24T07:31:12.092Z,31.63
2019-03-24T07:33:38.447Z,31.50
2019-03-24T07:36:04.932Z,31.90
2019-03-24T07:38:31.376Z,33.03
2019-03-24T07:40:57.856Z,31.33
2019-03-24T07:43:24.215Z,33.43
2019-03-24T07:45:50.595Z,30.30
2019-03-24T07:48:19.375Z,31.03
2019-03-24T07:50:45.439Z,31.83
2019-03-24T07:53:11.871Z,31.63
2019-03-24T07:55:38.348Z,32.03
2019-03-24T07:58:04.796Z,32.77
2019-03-24T08:00:32.295Z,32.17
2019-03-24T08:02:58.831Z,35.67
2019-03-24T08:05:25.183Z,33.43
2019-03-24T08:07:51.673Z,32.77
2019-03-24T08:10:18.012Z,35.47
2019-03-24T08:12:44.412Z,35.60
2019-03-24T08:15:10.963Z,37.60
2019-03-24T08:17:37.548Z,35.40
2019-03-24T08:20:04.714Z,35.07
2019-03-24T08:22:31.083Z,37.20
2019-03-24T08:24:57.438Z,36.00
2019-03-24T08:27:23.812Z,37.40
2019-03-24T08:29:50.255Z,36.80
2019-03-24T08:32:16.747Z,33.80
2019-03-24T08:34:43.100Z,36.17
2019-03-24T08:37:09.503Z,35.93
2019-03-24T08:39:35.956Z,37.97
2019-03-24T08:42:02.451Z,35.50
2019-03-24T08:44:28.799Z,35.30
2019-03-24T08:46:55.167Z,36.00
2019-03-24T08:49:21.514Z,36.77
2019-03-24T08:51:48.018Z,35.30
2019-03-24T08:54:14.491Z,36.33
2019-03-24T08:56:40.831Z,36.53
2019-03-24T08:59:07.406Z,36.63
2019-03-24T09:01:33.888Z,36.00
2019-03-24T09:04:00.239Z,36.87
2019-03-24T09:06:26.692Z,36.63
2019-03-24T09:08:53.068Z,37.90
2019-03-24T09:11:19.523Z,39.20
2019-03-24T09:13:46.004Z,35.47
2019-03-24T09:16:12.361Z,37.03
2019-03-24T09:18:38.936Z,38.23
2019-03-24T09:21:05.387Z,35.93
2019-03-24T09:23:31.772Z,36.67
2019-03-24T09:25:58.218Z,36.30
2019-03-24T09:28:24.701Z,35.98
2019-03-24T09:30:51.162Z,36.83
2019-03-24T09:33:17.745Z,35.30
2019-03-24T09:35:44.207Z,36.73
2019-03-24T09:38:10.690Z,37.50
2019-03-24T09:40:37.147Z,36.13
2019-03-24T09:43:03.819Z,37.80
2019-03-24T09:45:30.392Z,34.08
2019-03-24T09:47:57.071Z,36.48
2019-03-24T09:50:23.632Z,38.98
2019-03-24T09:52:50.192Z,36.58
2019-03-24T09:55:16.551Z,35.80
2019-03-24T09:57:42.999Z,37.55
2019-03-24T10:00:09.476Z,37.95
2019-03-24T10:02:35.925Z,35.33
2019-03-24T10:05:02.792Z,34.95
2019-03-24T10:07:29.148Z,35.75
2019-03-24T10:09:55.615Z,36.73
2019-03-24T10:12:21.961Z,35.80
2019-03-24T10:14:48.370Z,35.90
2019-03-24T10:17:14.830Z,36.73
2019-03-24T10:19:41.204Z,34.25
2019-03-24T10:22:07.651Z,37.63
2019-03-24T10:24:34.224Z,37.63
2019-03-24T10:27:00.586Z,36.45
2019-03-24T10:29:26.966Z,35.90
2019-03-24T10:31:53.528Z,37.58
2019-03-24T10:34:19.911Z,37.30
2019-03-24T10:36:46.421Z,38.35
2019-03-24T10:39:12.912Z,38.55
2019-03-24T10:41:39.463Z,38.33
2019-03-24T10:44:06.035Z,36.15
2019-03-24T10:46:32.511Z,38.85
2019-03-24T10:48:59.107Z,39.13
2019-03-24T10:51:25.603Z,38.55
2019-03-24T10:53:52.001Z,35.28
2019-03-24T10:56:18.674Z,37.85
2019-03-24T10:58:45.147Z,37.48
2019-03-24T11:01:14.456Z,37.28
2019-03-24T11:03:41.031Z,36.48
2019-03-24T11:06:07.495Z,37.40
2019-03-24T11:08:34.190Z,36.50
2019-03-24T11:11:00.640Z,36.73
2019-03-24T11:13:26.970Z,38.15
2019-03-24T11:15:53.664Z,38.33
2019-03-24T11:18:20.155Z,37.50
2019-03-24T11:20:46.752Z,39.18
2019-03-24T11:23:13.387Z,35.17
2019-03-24T11:25:39.891Z,36.45
2019-03-24T11:28:06.235Z,37.58
2019-03-24T11:30:32.612Z,38.75
2019-03-24T11:32:59.219Z,36.53
2019-03-24T11:35:25.702Z,36.10
2019-03-24T11:37:52.648Z,37.42
2019-03-24T11:40:19.118Z,37.58
2019-03-24T11:42:45.471Z,36.40
2019-03-24T11:45:12.409Z,35.95
2019-03-24T11:47:38.892Z,34.13
2019-03-24T11:50:06.653Z,35.28
2019-03-24T11:52:33.168Z,36.63
2019-03-24T11:54:59.520Z,35.23
2019-03-24T11:57:26.018Z,34.92
2019-03-24T11:59:52.380Z,37.50
2019-03-24T12:02:18.777Z,36.40
2019-03-24T12:04:45.336Z,35.17
2019-03-24T12:07:11.807Z,36.25
2019-03-24T12:09:38.155Z,34.63
2019-03-24T12:12:04.736Z,35.78
2019-03-24T12:14:31.140Z,38.20
2019-03-24T12:16:57.603Z,34.83
2019-03-24T12:19:23.989Z,35.58
2019-03-24T12:21:50.467Z,35.25
2019-03-24T12:24:16.819Z,34.43
2019-03-24T12:26:43.215Z,37.70
2019-03-24T12:29:09.559Z,35.85
2019-03-24T12:31:36.027Z,34.85
2019-03-24T12:34:02.574Z,34.50
2019-03-24T12:36:28.966Z,36.10
2019-03-24T12:38:55.310Z,32.67
2019-03-24T12:41:21.764Z,35.25
2019-03-24T12:43:48.146Z,34.23
2019-03-24T12:46:14.495Z,34.35
2019-03-24T12:48:41.069Z,35.52
2019-03-24T12:51:07.511Z,34.08
2019-03-24T12:53:33.908Z,33.60
2019-03-24T12:56:00.460Z,33.70
2019-03-24T12:58:26.860Z,34.95
2019-03-24T13:00:53.459Z,34.25
2019-03-24T13:03:19.953Z,35.83
2019-03-24T13:05:46.404Z,34.63
2019-03-24T13:08:13.568Z,31.70
2019-03-24T13:10:40.763Z,35.58
2019-03-24T13:13:07.531Z,33.73
2019-03-24T13:15:34.017Z,34.85
2019-03-24T13:18:02.483Z,33.55
2019-03-24T13:20:37.979Z,33.35
2019-03-24T13:22:59.514Z,32.85
2019-03-24T13:25:25.960Z,33.13
2019-03-24T13:27:52.448Z,32.45
2019-03-24T13:30:18.895Z,33.30
2019-03-24T13:32:45.259Z,32.50
2019-03-24T13:35:11.729Z,33.60
2019-03-24T13:37:38.293Z,33.00
2019-03-24T13:40:04.932Z,32.58
2019-03-24T13:42:31.398Z,31.55
2019-03-24T13:44:57.823Z,33.60
2019-03-24T13:47:24.374Z,33.75
2019-03-24T13:49:50.772Z,33.80
2019-03-24T13:52:17.171Z,33.45
2019-03-24T13:54:43.564Z,33.95
2019-03-24T13:57:10.038Z,32.63
2019-03-24T13:59:36.518Z,33.28
2019-03-24T14:02:03.476Z,30.77
2019-03-24T14:04:29.957Z,33.05
2019-03-24T14:06:56.511Z,32.35
2019-03-24T14:09:22.912Z,32.50
2019-03-24T14:11:49.360Z,31.80
2019-03-24T14:14:15.863Z,30.90
2019-03-24T14:16:42.231Z,32.38
2019-03-24T14:19:08.715Z,32.80
2019-03-24T14:21:35.085Z,32.65
2019-03-24T14:24:01.547Z,32.85
2019-03-24T14:26:28.107Z,32.60
2019-03-24T14:28:54.702Z,33.65
2019-03-24T14:31:21.055Z,32.63
2019-03-24T14:33:47.425Z,32.45
2019-03-24T14:36:13.803Z,31.02
2019-03-24T14:38:42.470Z,32.28
2019-03-24T14:41:08.811Z,32.85
2019-03-24T14:43:35.183Z,33.08
2019-03-24T14:46:01.637Z,33.23
2019-03-24T14:48:28.026Z,33.20
2019-03-24T14:50:55.112Z,33.83
2019-03-24T14:53:21.583Z,34.88
2019-03-24T14:55:48.141Z,34.20
2019-03-24T14:58:14.504Z,33.83
2019-03-24T15:00:41.631Z,32.08
2019-03-24T15:03:08.382Z,35.28
2019-03-24T15:05:34.967Z,34.25
2019-03-24T15:08:02.132Z,31.62
2019-03-24T15:10:28.527Z,32.70
2019-03-24T15:12:54.989Z,32.70
2019-03-24T15:15:21.496Z,33.85
2019-03-24T15:17:48.061Z,33.25
2019-03-24T15:20:14.566Z,34.03
2019-03-24T15:22:41.015Z,31.68
2019-03-24T15:25:07.692Z,33.42
2019-03-24T15:27:34.307Z,31.35
2019-03-24T15:30:00.863Z,31.15
2019-03-24T15:32:27.241Z,32.93
2019-03-24T15:34:53.967Z,34.53
2019-03-24T15:37:20.402Z,33.88
2019-03-24T15:39:46.876Z,30.92
2019-03-24T15:42:13.230Z,33.30
2019-03-24T15:44:39.694Z,34.05
2019-03-24T15:47:06.059Z,39.15
2019-03-24T15:49:32.431Z,33.95
2019-03-24T15:51:58.878Z,32.05
2019-03-24T15:54:25.369Z,31.65
2019-03-24T15:56:51.721Z,31.55
2019-03-24T15:59:18.258Z,31.55
2019-03-24T16:01:44.861Z,32.63
2019-03-24T16:04:11.291Z,48.68
2019-03-24T16:06:39.482Z,49.27
2019-03-24T16:09:06.555Z,80.28
2019-03-24T16:11:33.002Z,75.47
2019-03-24T16:13:59.496Z,35.35
2019-03-24T16:16:26.093Z,56.77
2019-03-24T16:18:52.439Z,38.80
2019-03-24T16:21:27.409Z,34.63
2019-03-24T16:23:47.182Z,33.02
2019-03-24T16:26:13.577Z,34.03
2019-03-24T16:28:40.141Z,33.25
2019-03-24T16:31:06.647Z,48.25
2019-03-24T16:33:33.089Z,34.63
2019-03-24T16:35:59.555Z,33.83
2019-03-24T16:38:26.022Z,32.87
2019-03-24T16:40:52.441Z,46.63
2019-03-24T16:43:18.910Z,40.07
2019-03-24T16:45:47.296Z,35.13
2019-03-24T16:48:13.685Z,36.60
2019-03-24T16:50:42.385Z,37.03
2019-03-24T16:53:08.871Z,34.10
2019-03-24T16:55:35.320Z,35.03
2019-03-24T16:58:02.084Z,35.40
2019-03-24T17:00:28.443Z,34.97
2019-03-24T17:02:54.804Z,39.00
2019-03-24T17:05:21.277Z,40.13
2019-03-24T17:07:47.849Z,33.97
2019-03-24T17:10:14.324Z,35.03
2019-03-24T17:12:40.904Z,34.63
2019-03-24T17:15:08.201Z,31.83
2019-03-24T17:17:34.767Z,40.67
2019-03-24T17:20:01.473Z,33.13
2019-03-24T17:22:30.099Z,39.67
2019-03-24T17:24:56.306Z,32.17
2019-03-24T17:27:22.691Z,31.93
2019-03-24T17:29:49.124Z,33.07
2019-03-24T17:32:15.489Z,33.33
2019-03-24T17:34:41.831Z,31.63
2019-03-24T17:37:08.311Z,32.43
2019-03-24T17:39:34.697Z,31.73
2019-03-24T17:42:01.158Z,31.23
2019-03-24T17:44:27.511Z,32.50
2019-03-24T17:46:53.964Z,32.23
2019-03-24T17:49:20.332Z,31.03
2019-03-24T17:51:46.793Z,32.63
2019-03-24T17:54:13.304Z,35.33
2019-03-24T17:56:39.861Z,34.10
2019-03-24T17:59:06.240Z,31.80
2019-03-24T18:01:32.797Z,32.50
2019-03-24T18:03:59.195Z,32.27
2019-03-24T18:06:25.640Z,31.93
2019-03-24T18:08:52.211Z,32.83
2019-03-24T18:11:18.672Z,31.97
2019-03-24T18:13:45.245Z,31.67
2019-03-24T18:16:11.616Z,29.60
2019-03-24T18:18:38.074Z,32.43
2019-03-24T18:21:04.660Z,31.77
2019-03-24T18:23:31.171Z,31.53
2019-03-24T18:25:57.658Z,31.80
2019-03-24T18:28:24.306Z,31.80
2019-03-24T18:30:50.762Z,30.97
2019-03-24T18:33:17.131Z,31.80
2019-03-24T18:35:43.683Z,31.87
2019-03-24T18:38:10.174Z,31.37
2019-03-24T18:40:36.711Z,31.87
2019-03-24T18:43:03.378Z,31.80
2019-03-24T18:45:29.831Z,32.17
2019-03-24T18:47:56.289Z,32.37
2019-03-24T18:50:22.654Z,32.23
2019-03-24T18:52:50.187Z,31.03
2019-03-24T18:55:16.815Z,31.27
2019-03-24T18:57:43.280Z,32.00
2019-03-24T19:00:10.556Z,29.80
2019-03-24T19:02:37.011Z,32.70
2019-03-24T19:05:04.772Z,30.83
2019-03-24T19:07:31.362Z,32.23
2019-03-24T19:09:57.761Z,31.53
2019-03-24T19:12:24.215Z,30.73
2019-03-24T19:14:50.730Z,30.13
2019-03-24T19:17:17.187Z,29.50
2019-03-24T19:19:43.678Z,39.67
2019-03-24T19:22:10.131Z,29.90
2019-03-24T19:24:36.590Z,30.03
2019-03-24T19:27:03.149Z,28.63
2019-03-24T19:29:29.560Z,29.90
2019-03-24T19:31:56.210Z,28.87
2019-03-24T19:34:22.551Z,28.73
2019-03-24T19:36:48.923Z,27.63
2019-03-24T19:39:15.283Z,29.23
2019-03-24T19:41:41.749Z,28.80
2019-03-24T19:44:08.131Z,27.53
2019-03-24T19:46:34.513Z,28.37
2019-03-24T19:49:00.863Z,28.97
2019-03-24T19:51:27.255Z,27.73
2019-03-24T19:53:53.702Z,28.10
2019-03-24T19:56:20.084Z,27.90
2019-03-24T19:58:46.445Z,26.73
2019-03-24T20:01:13.023Z,26.80
2019-03-24T20:03:39.366Z,33.90
2019-03-24T20:06:05.848Z,27.13
2019-03-24T20:08:32.235Z,27.30
2019-03-24T20:10:58.736Z,25.10
2019-03-24T20:13:25.091Z,25.93
2019-03-24T20:15:51.607Z,29.60
2019-03-24T20:18:18.168Z,27.00
2019-03-24T20:20:44.536Z,26.63
2019-03-24T20:23:10.998Z,24.37
2019-03-24T20:25:37.473Z,22.97
2019-03-24T20:28:03.973Z,24.53
2019-03-24T20:30:30.541Z,25.50
2019-03-24T20:32:57.091Z,23.67
2019-03-24T20:35:23.552Z,24.17
2019-03-24T20:37:50.053Z,24.67
2019-03-24T20:40:16.499Z,24.70
2019-03-24T20:42:42.887Z,26.07
2019-03-24T20:45:09.659Z,24.80
2019-03-24T20:47:36.131Z,23.83
2019-03-24T20:50:04.542Z,25.40
2019-03-24T20:52:31.106Z,24.10
2019-03-24T20:54:57.583Z,23.47
2019-03-24T20:57:24.076Z,24.00
2019-03-24T20:59:52.088Z,23.20
2019-03-24T21:02:18.654Z,23.20
2019-03-24T21:04:45.046Z,26.00
2019-03-24T21:07:11.565Z,23.17
2019-03-24T21:09:37.909Z,23.80
2019-03-24T21:12:04.312Z,23.50
2019-03-24T21:14:30.711Z,23.33
2019-03-24T21:16:57.228Z,21.87
2019-03-24T21:19:23.726Z,23.20
2019-03-24T21:21:50.102Z,22.40
2019-03-24T21:24:16.547Z,23.00
2019-03-24T21:26:42.923Z,22.30
2019-03-24T21:29:09.303Z,22.53
2019-03-24T21:31:35.764Z,21.37
2019-03-24T21:34:02.229Z,21.17
2019-03-24T21:36:28.600Z,23.50
2019-03-24T21:38:54.951Z,20.53
2019-03-24T21:41:21.350Z,23.43
2019-03-24T21:43:47.945Z,23.87
2019-03-24T21:46:14.301Z,22.07
2019-03-24T21:48:40.676Z,22.07
2019-03-24T21:51:07.123Z,23.10
2019-03-24T21:53:40.624Z,21.60
2019-03-24T21:56:01.839Z,19.87
2019-03-24T21:58:28.226Z,21.67
2019-03-24T22:00:54.676Z,23.37
2019-03-24T22:03:21.293Z,21.33
2019-03-24T22:05:47.736Z,23.53
2019-03-24T22:08:14.323Z,24.30
2019-03-24T22:10:40.880Z,22.40
2019-03-24T22:13:07.320Z,22.43
2019-03-24T22:15:33.734Z,22.40
2019-03-24T22:18:00.208Z,23.33
2019-03-24T22:20:26.762Z,24.40
2019-03-24T22:22:53.341Z,24.53
2019-03-24T22:25:19.799Z,24.40
2019-03-24T22:27:46.203Z,22.87
2019-03-24T22:30:12.869Z,25.07
2019-03-24T22:32:39.225Z,23.77
2019-03-24T22:35:05.583Z,24.43
2019-03-24T22:37:32.055Z,25.47
2019-03-24T22:39:58.408Z,26.90
2019-03-24T22:42:24.779Z,25.03
2019-03-24T22:44:51.159Z,27.17
2019-03-24T22:47:17.631Z,27.60
2019-03-24T22:49:44.079Z,26.47
2019-03-24T22:52:10.540Z,27.87
2019-03-24T22:54:36.910Z,24.93
2019-03-24T22:57:03.290Z,26.23
2019-03-24T22:59:29.763Z,26.70
2019-03-24T23:01:56.206Z,25.57
2019-03-24T23:04:22.680Z,26.63
2019-03-24T23:06:49.039Z,25.60
2019-03-24T23:09:15.508Z,25.30
2019-03-24T23:11:41.963Z,25.17
2019-03-24T23:14:08.439Z,24.87
2019-03-24T23:16:34.827Z,24.13
2019-03-24T23:19:01.212Z,25.07
2019-03-24T23:21:27.622Z,23.60
2019-03-24T23:23:54.095Z,22.97
2019-03-24T23:26:20.546Z,22.27
2019-03-24T23:28:47.103Z,21.80
2019-03-24T23:31:13.675Z,20.73
2019-03-24T23:33:40.135Z,21.43
2019-03-24T23:36:07.510Z,19.80
2019-03-24T23:38:34.104Z,20.27
2019-03-24T23:41:00.463Z,20.97
2019-03-24T23:43:26.857Z,20.17
2019-03-24T23:45:53.299Z,19.47
2019-03-24T23:48:19.674Z,19.43
2019-03-24T23:50:46.259Z,20.57
2019-03-24T23:53:12.804Z,21.13
2019-03-24T23:55:39.259Z,20.73
2019-03-24T23:58:05.607Z,19.60
